Time;durP1;ratioP1;P1;durP2;ratioP2;P2;SDS_P1;SDS_P2;PMS_P1;PMS_P2;Temp;Humidity;BMP_temperature;BMP_pressure;BME280_temperature;BME280_humidity;BME280_pressure;Samples;Min_cycle;Max_cycle;Signal;HPM_P1;HPM_P2
2023/06/22 00:00:08;;;;;;;;;;;;;;;20.62;71.97;98133.94;5078951;28;19978;-62
2023/06/22 00:02:38;;;;;;;;;;;;;;;20.61;72.09;98129.56;5070518;28;19929;-62
2023/06/22 00:05:06;;;;;;;;;;;;;;;20.62;71.78;98123.69;5074390;28;19986;-62
2023/06/22 00:07:34;;;;;;;;;;;;;;;20.65;71.50;98122.13;5074265;28;19928;-62
2023/06/22 00:10:02;;;;;;;;;;;;;;;20.60;71.59;98125.22;5086249;28;20277;-62
2023/06/22 00:12:30;;;;;;;;;;;;;;;20.56;71.81;98129.88;5081431;28;19985;-61
2023/06/22 00:14:58;;;;;;;;;;;;;;;20.54;71.87;98141.31;5077663;28;19924;-63
2023/06/22 00:17:27;;;;;;;;;;;;;;;20.53;72.03;98127.88;5082555;28;19924;-61
2023/06/22 00:19:56;;;;;;;;;;;;;;;20.46;72.22;98122.22;5094218;28;19963;-61
2023/06/22 00:22:28;;;;;;;;;;;;;;;20.41;72.04;98123.34;5092344;28;20027;-62
2023/06/22 00:24:56;;;;;;;;;;;;;;;20.32;72.50;98137.38;5094031;28;20372;-64
2023/06/22 00:27:24;;;;;;;;;;;;;;;20.33;72.58;98143.69;5074991;28;19924;-62
2023/06/22 00:29:52;;;;;;;;;;;;;;;20.34;72.55;98151.59;5080566;28;19970;-62
2023/06/22 00:32:21;;;;;;;;;;;;;;;20.28;72.72;98150.31;5081084;28;20393;-65
2023/06/22 00:34:51;;;;;;;;;;;;;;;20.35;72.63;98157.94;5078006;28;20345;-62
2023/06/22 00:37:18;;;;;;;;;;;;;;;20.27;72.71;98162.53;5060932;28;19974;-62
2023/06/22 00:39:46;;;;;;;;;;;;;;;20.34;72.48;98170.91;5075350;28;19932;-62
2023/06/22 00:42:16;;;;;;;;;;;;;;;20.31;72.41;98174.44;5075649;28;20599;-62
2023/06/22 00:44:47;;;;;;;;;;;;;;;20.28;72.90;98179.88;5073737;28;19924;-62
2023/06/22 00:47:14;;;;;;;;;;;;;;;20.32;72.60;98176.00;5070335;28;19967;-61
2023/06/22 00:49:42;;;;;;;;;;;;;;;20.26;72.75;98171.97;5072187;28;20386;-61
2023/06/22 00:52:13;;;;;;;;;;;;;;;20.27;72.84;98173.56;5090674;28;19924;-62
2023/06/22 00:54:45;;;;;;;;;;;;;;;20.28;72.61;98186.19;5092634;28;19924;-62
2023/06/22 00:57:15;;;;;;;;;;;;;;;20.21;72.75;98183.31;5068927;28;19924;-61
2023/06/22 00:59:44;;;;;;;;;;;;;;;20.17;72.87;98163.16;5070620;28;20026;-61
2023/06/22 01:02:11;;;;;;;;;;;;;;;20.19;73.02;98160.84;5085529;28;19925;-61
2023/06/22 01:04:40;;;;;;;;;;;;;;;20.19;72.93;98165.53;5098730;28;20396;-61
2023/06/22 01:07:12;;;;;;;;;;;;;;;20.19;72.74;98165.53;5073006;28;19993;-61
2023/06/22 01:09:43;;;;;;;;;;;;;;;20.10;73.02;98165.78;5063892;28;19928;-62
2023/06/22 01:12:13;;;;;;;;;;;;;;;20.11;72.85;98165.41;5088260;28;19963;-64
2023/06/22 01:14:41;;;;;;;;;;;;;;;20.07;73.31;98152.72;5088949;28;19975;-61
2023/06/22 01:17:09;;;;;;;;;;;;;;;20.09;73.10;98150.41;5067256;28;19994;-61
2023/06/22 01:19:41;;;;;;;;;;;;;;;20.04;73.36;98137.72;5070447;28;19924;-61
2023/06/22 01:22:15;;;;;;;;;;;;;;;19.95;73.77;98130.84;5070085;28;20027;-62
2023/06/22 01:24:55;;;;;;;;;;;;;;;19.96;73.68;98116.69;5088660;28;20018;-61
2023/06/22 01:27:28;;;;;;;;;;;;;;;19.95;73.94;98108.81;5081115;28;20028;-61
2023/06/22 01:30:00;;;;;;;;;;;;;;;19.97;73.77;98100.94;5062366;28;19925;-62
2023/06/22 01:32:29;;;;;;;;;;;;;;;19.95;73.71;98098.56;5081809;28;19978;-61
2023/06/22 01:34:58;;;;;;;;;;;;;;;19.92;73.92;98090.22;5085249;28;19981;-62
2023/06/22 01:37:26;;;;;;;;;;;;;;;19.94;73.72;98087.91;5087674;28;19932;-61
2023/06/22 01:39:54;;;;;;;;;;;;;;;19.88;73.92;98093.72;5085140;28;19956;-62
2023/06/22 01:42:23;;;;;;;;;;;;;;;19.86;74.01;98098.00;5069333;28;19924;-62
2023/06/22 01:44:51;;;;;;;;;;;;;;;19.89;73.81;98109.09;5071838;28;19974;-63
2023/06/22 01:47:20;;;;;;;;;;;;;;;19.83;73.90;98110.56;5071249;28;20788;-62
2023/06/22 01:49:47;;;;;;;;;;;;;;;19.87;73.50;98111.44;5071781;28;20026;-62
2023/06/22 01:52:15;;;;;;;;;;;;;;;19.84;73.72;98103.91;5073865;28;20026;-61
2023/06/22 01:54:43;;;;;;;;;;;;;;;19.78;73.57;98102.63;5067770;28;19924;-62
2023/06/22 01:57:12;;;;;;;;;;;;;;;19.80;73.57;98100.28;5066337;28;20403;-63
2023/06/22 01:59:42;;;;;;;;;;;;;;;19.67;74.01;98107.16;5098377;28;19928;-61
2023/06/22 02:02:10;;;;;;;;;;;;;;;19.63;74.03;98106.28;5074337;28;20316;-62
2023/06/22 02:04:42;;;;;;;;;;;;;;;19.64;74.16;98107.88;5074621;28;20432;-62
2023/06/22 02:07:13;;;;;;;;;;;;;;;19.60;74.25;98095.97;5079803;28;20031;-61
2023/06/22 02:09:41;;;;;;;;;;;;;;;19.58;74.23;98104.59;5074363;28;19924;-61
2023/06/22 02:12:09;;;;;;;;;;;;;;;19.59;74.23;98110.91;5074947;28;19929;-63
2023/06/22 02:14:38;;;;;;;;;;;;;;;19.53;74.40;98120.63;5086158;28;20477;-62
2023/06/22 02:17:07;;;;;;;;;;;;;;;19.43;74.87;98127.53;5094992;28;19928;-61
2023/06/22 02:19:37;;;;;;;;;;;;;;;19.49;74.82;98122.50;5066371;28;20397;-62
2023/06/22 02:22:06;;;;;;;;;;;;;;;19.54;74.22;98130.47;5059696;28;19924;-62
2023/06/22 02:24:33;;;;;;;;;;;;;;;19.51;74.61;98132.03;5078627;28;20011;-62
2023/06/22 02:27:02;;;;;;;;;;;;;;;19.57;74.28;98124.25;5086347;28;19956;-62
2023/06/22 02:29:32;;;;;;;;;;;;;;;19.56;74.47;98125.41;5090690;28;19955;-62
2023/06/22 02:32:00;;;;;;;;;;;;;;;19.51;74.93;98125.72;5098700;28;19925;-61
2023/06/22 02:34:28;;;;;;;;;;;;;;;19.52;74.84;98121.78;5070118;28;20429;-62
2023/06/22 02:36:56;;;;;;;;;;;;;;;19.52;74.78;98119.03;5060507;28;19932;-61
2023/06/22 02:39:25;;;;;;;;;;;;;;;19.55;74.53;98116.34;5064704;28;19931;-61
2023/06/22 02:41:53;;;;;;;;;;;;;;;19.56;74.50;98125.41;5070451;28;20038;-62
2023/06/22 02:44:22;;;;;;;;;;;;;;;19.58;74.52;98142.38;5068565;28;19970;-61
2023/06/22 02:46:50;;;;;;;;;;;;;;;19.57;74.29;98171.09;5085325;28;19970;-61
2023/06/22 02:49:18;;;;;;;;;;;;;;;19.48;74.79;98189.81;5071993;28;19928;-62
2023/06/22 02:51:47;;;;;;;;;;;;;;;19.50;74.84;98209.53;5071776;28;19975;-61
2023/06/22 02:54:18;;;;;;;;;;;;;;;19.45;75.08;98221.66;5058844;28;20467;-61
2023/06/22 02:56:50;;;;;;;;;;;;;;;19.45;75.23;98242.91;5099321;28;19924;-61
2023/06/22 02:59:23;;;;;;;;;;;;;;;19.46;75.32;98245.28;5099888;28;19985;-62
2023/06/22 03:01:55;;;;;;;;;;;;;;;19.39;75.47;98236.88;5071046;28;19931;-61
2023/06/22 03:04:27;;;;;;;;;;;;;;;19.31;75.72;98240.63;5100188;28;19924;-61
2023/06/22 03:06:55;;;;;;;;;;;;;;;19.25;76.03;98239.31;5068048;28;19924;-61
2023/06/22 03:09:24;;;;;;;;;;;;;;;19.26;76.03;98238.94;5062425;28;19924;-61
2023/06/22 03:11:53;;;;;;;;;;;;;;;19.38;75.56;98240.78;5065662;28;19931;-61
2023/06/22 03:14:22;;;;;;;;;;;;;;;19.24;75.81;98232.22;5067932;28;19928;-62
2023/06/22 03:16:52;;;;;;;;;;;;;;;19.20;76.28;98236.84;5064982;28;19924;-61
2023/06/22 03:19:21;;;;;;;;;;;;;;;19.15;76.49;98229.66;5063491;28;19928;-62
2023/06/22 03:21:49;;;;;;;;;;;;;;;19.02;77.18;98214.44;5065221;28;20022;-61
2023/06/22 03:24:16;;;;;;;;;;;;;;;19.01;77.17;98219.13;5059742;28;20877;-61
2023/06/22 03:26:46;;;;;;;;;;;;;;;19.10;76.41;98227.19;5063958;28;19924;-61
2023/06/22 03:29:15;;;;;;;;;;;;;;;19.13;76.31;98218.22;5062434;28;19924;-61
2023/06/22 03:31:45;;;;;;;;;;;;;;;19.17;76.04;98205.28;5077659;28;19932;-61
2023/06/22 03:34:14;;;;;;;;;;;;;;;19.24;75.29;98208.22;5067014;28;19925;-62
2023/06/22 03:36:45;;;;;;;;;;;;;;;19.19;75.27;98202.19;5065098;28;19936;-62
2023/06/22 03:39:12;;;;;;;;;;;;;;;19.20;75.11;98198.28;5072564;28;19924;-64
2023/06/22 03:41:41;;;;;;;;;;;;;;;19.23;74.85;98192.88;5065123;28;19931;-61
2023/06/22 03:44:12;;;;;;;;;;;;;;;19.16;75.17;98187.19;5061784;28;19928;-63
2023/06/22 03:46:41;;;;;;;;;;;;;;;19.04;75.45;98184.56;5089406;28;20335;-61
2023/06/22 03:49:09;;;;;;;;;;;;;;;18.99;75.93;98193.13;5075936;28;19968;-62
2023/06/22 03:51:36;;;;;;;;;;;;;;;19.05;75.65;98181.44;5090157;28;20347;-61
2023/06/22 03:54:04;;;;;;;;;;;;;;;19.05;75.63;98175.94;5091128;28;19982;-61
2023/06/22 03:56:32;;;;;;;;;;;;;;;19.06;75.78;98162.97;5079180;28;20031;-61
2023/06/22 03:58:59;;;;;;;;;;;;;;;19.06;75.48;98172.03;5076271;28;19986;-61
2023/06/22 04:01:27;;;;;;;;;;;;;;;19.17;75.42;98157.69;5084568;28;20023;-61
2023/06/22 04:03:57;;;;;;;;;;;;;;;19.16;75.41;98159.66;5099767;28;19989;-63
2023/06/22 04:06:25;;;;;;;;;;;;;;;19.25;75.24;98173.22;5060742;28;19925;-62
2023/06/22 04:08:52;;;;;;;;;;;;;;;19.19;75.31;98153.44;5072006;28;19925;-63
2023/06/22 04:11:20;;;;;;;;;;;;;;;19.20;75.48;98155.00;5050870;28;19931;-64
2023/06/22 04:13:48;;;;;;;;;;;;;;;19.23;75.55;98148.78;5039750;28;19952;-63
2023/06/22 04:16:16;;;;;;;;;;;;;;;19.26;75.53;98148.06;5065432;28;19924;-63
2023/06/22 04:18:44;;;;;;;;;;;;;;;19.24;75.56;98125.59;5078942;28;20349;-65
2023/06/22 04:21:13;;;;;;;;;;;;;;;19.23;75.17;98129.50;5070635;28;19948;-62
2023/06/22 04:23:44;;;;;;;;;;;;;;;19.27;75.22;98146.88;5065426;28;19925;-63
2023/06/22 04:26:11;;;;;;;;;;;;;;;19.28;75.20;98128.41;5065106;28;19924;-62
2023/06/22 04:28:39;;;;;;;;;;;;;;;19.31;75.12;98103.69;5044568;28;19971;-63
2023/06/22 04:31:07;;;;;;;;;;;;;;;19.32;74.91;98108.03;5041717;28;19928;-59
2023/06/22 04:33:35;;;;;;;;;;;;;;;19.38;74.83;98122.31;5066098;28;19926;-60
2023/06/22 04:36:03;;;;;;;;;;;;;;;19.34;74.88;98126.97;5070563;28;20388;-63
2023/06/22 04:38:33;;;;;;;;;;;;;;;19.40;74.88;98103.47;5072902;28;19939;-63
2023/06/22 04:41:03;;;;;;;;;;;;;;;19.44;74.23;98089.75;5072661;28;19966;-63
2023/06/22 04:43:31;;;;;;;;;;;;;;;19.45;74.03;98094.91;5050359;28;19931;-63
2023/06/22 04:46:03;;;;;;;;;;;;;;;19.48;74.10;98094.16;5068335;28;20062;-63
2023/06/22 04:48:32;;;;;;;;;;;;;;;19.55;73.82;98088.81;5074371;28;20388;-63
2023/06/22 04:51:04;;;;;;;;;;;;;;;19.52;73.71;98100.53;5059783;28;19928;-63
2023/06/22 04:53:33;;;;;;;;;;;;;;;19.54;73.80;98098.19;5077466;28;19925;-63
2023/06/22 04:56:04;;;;;;;;;;;;;;;19.57;73.71;98091.19;5044936;28;19924;-64
2023/06/22 04:58:32;;;;;;;;;;;;;;;19.58;73.71;98076.22;5068337;28;20361;-61
2023/06/22 05:01:00;;;;;;;;;;;;;;;19.59;73.51;98080.59;5041563;28;19928;-61
2023/06/22 05:03:27;;;;;;;;;;;;;;;19.65;73.08;98089.38;5067025;28;19990;-60
2023/06/22 05:05:55;;;;;;;;;;;;;;;19.69;73.30;98093.00;5084836;28;19931;-61
2023/06/22 05:08:26;;;;;;;;;;;;;;;19.66;73.39;98094.53;5092496;28;20373;-60
2023/06/22 05:10:56;;;;;;;;;;;;;;;19.63;73.60;98089.75;5088720;28;19934;-60
2023/06/22 05:13:31;;;;;;;;;;;;;;;19.78;73.45;98074.25;5084239;28;20281;-60
2023/06/22 05:16:01;;;;;;;;;;;;;;;19.78;73.29;98080.56;5074899;28;20434;-60
2023/06/22 05:18:30;;;;;;;;;;;;;;;19.82;73.55;98089.69;5068722;28;20452;-60
2023/06/22 05:20:58;;;;;;;;;;;;;;;19.85;73.60;98091.69;5072624;28;19974;-61
2023/06/22 05:23:26;;;;;;;;;;;;;;;19.93;73.25;98091.84;5089014;28;19974;-60
2023/06/22 05:25:57;;;;;;;;;;;;;;;19.98;73.44;98075.78;5090691;28;19965;-60
2023/06/22 05:28:25;;;;;;;;;;;;;;;20.05;73.47;98072.31;5090993;28;20019;-60
2023/06/22 05:30:53;;;;;;;;;;;;;;;20.15;73.15;98071.69;5090058;28;19924;-60
2023/06/22 05:33:21;;;;;;;;;;;;;;;20.23;73.37;98078.13;5068994;28;20361;-60
2023/06/22 05:35:49;;;;;;;;;;;;;;;20.31;73.02;98075.09;5090000;28;19958;-63
2023/06/22 05:38:17;;;;;;;;;;;;;;;20.36;73.01;98065.72;5091895;28;20030;-63
2023/06/22 05:40:47;;;;;;;;;;;;;;;20.44;72.97;98069.34;5092951;28;19924;-63
2023/06/22 05:43:16;;;;;;;;;;;;;;;20.54;72.61;98068.75;5083628;28;19947;-60
2023/06/22 05:45:44;;;;;;;;;;;;;;;20.65;72.49;98073.25;5083222;28;19996;-60
2023/06/22 05:48:12;;;;;;;;;;;;;;;20.82;70.87;98073.84;5078839;28;19925;-60
2023/06/22 05:50:40;;;;;;;;;;;;;;;20.90;71.62;98072.78;5092823;28;19928;-60
2023/06/22 05:53:08;;;;;;;;;;;;;;;20.91;71.45;98068.84;5085229;28;19924;-60
2023/06/22 05:55:35;;;;;;;;;;;;;;;20.92;71.10;98062.13;5090975;28;19930;-60
2023/06/22 05:58:04;;;;;;;;;;;;;;;21.01;71.07;98059.09;5089444;28;19932;-60
2023/06/22 06:00:33;;;;;;;;;;;;;;;21.15;70.85;98051.00;5090677;28;20316;-60
2023/06/22 06:03:03;;;;;;;;;;;;;;;21.06;70.91;98050.47;5089128;28;20020;-61
2023/06/22 06:05:31;;;;;;;;;;;;;;;21.12;70.62;98057.25;5090989;28;19924;-60
2023/06/22 06:07:58;;;;;;;;;;;;;;;21.26;70.29;98054.66;5080410;28;20369;-61
2023/06/22 06:10:27;;;;;;;;;;;;;;;21.29;70.60;98058.63;5074635;28;20432;-60
2023/06/22 06:12:55;;;;;;;;;;;;;;;21.32;70.33;98057.91;5078239;28;19940;-60
2023/06/22 06:15:23;;;;;;;;;;;;;;;21.48;69.93;98057.66;5078835;28;19960;-60
2023/06/22 06:17:53;;;;;;;;;;;;;;;21.50;70.30;98063.59;5084990;28;19928;-60
2023/06/22 06:20:22;;;;;;;;;;;;;;;21.58;69.10;98062.50;5083013;28;20384;-62
2023/06/22 06:22:50;;;;;;;;;;;;;;;21.64;69.46;98058.22;5085419;28;19960;-61
2023/06/22 06:25:19;;;;;;;;;;;;;;;21.74;68.78;98052.00;5084081;28;20331;-60
2023/06/22 06:27:47;;;;;;;;;;;;;;;21.88;68.83;98043.78;5078529;28;19970;-61
2023/06/22 06:30:16;;;;;;;;;;;;;;;21.88;68.89;98043.78;5077282;28;19946;-61
2023/06/22 06:32:45;;;;;;;;;;;;;;;21.94;68.40;98035.94;5078062;28;19928;-60
2023/06/22 06:35:16;;;;;;;;;;;;;;;22.02;68.25;98047.88;5076707;28;19931;-60
2023/06/22 06:37:44;;;;;;;;;;;;;;;21.99;68.41;98046.66;5082219;28;20053;-60
2023/06/22 06:40:13;;;;;;;;;;;;;;;22.11;67.29;98048.38;5085551;28;20651;-61
2023/06/22 06:42:41;;;;;;;;;;;;;;;22.19;67.50;98038.94;5085721;28;19924;-60
2023/06/22 06:45:10;;;;;;;;;;;;;;;22.23;67.86;98031.44;5061947;28;20282;-61
2023/06/22 06:47:38;;;;;;;;;;;;;;;22.29;67.17;98034.66;5080278;28;19931;-60
2023/06/22 06:50:06;;;;;;;;;;;;;;;22.33;67.56;98041.78;5077648;28;20306;-60
2023/06/22 06:52:36;;;;;;;;;;;;;;;22.39;67.47;98031.94;5082046;28;19932;-61
2023/06/22 06:55:08;;;;;;;;;;;;;;;22.45;67.15;98022.09;5086198;28;19932;-61
2023/06/22 06:57:37;;;;;;;;;;;;;;;22.52;66.67;98026.06;5088705;28;20433;-61
2023/06/22 07:00:11;;;;;;;;;;;;;;;22.62;66.89;98014.25;5089732;28;20512;-60
2023/06/22 07:02:41;;;;;;;;;;;;;;;22.64;67.19;98012.69;5064056;28;20361;-60
2023/06/22 07:05:09;;;;;;;;;;;;;;;22.63;66.59;98011.09;5078209;28;19982;-61
2023/06/22 07:07:38;;;;;;;;;;;;;;;22.67;66.10;98011.91;5056043;28;19924;-61
2023/06/22 07:10:07;;;;;;;;;;;;;;;22.82;66.19;98011.97;5074358;28;19928;-60
2023/06/22 07:12:35;;;;;;;;;;;;;;;22.84;65.89;98007.63;5083465;28;20354;-61
2023/06/22 07:15:04;;;;;;;;;;;;;;;22.90;65.93;98013.59;5076304;28;19939;-62
2023/06/22 07:17:31;;;;;;;;;;;;;;;22.93;65.79;98008.09;5082883;28;19924;-60
2023/06/22 07:19:59;;;;;;;;;;;;;;;22.98;65.67;98010.47;5071811;28;19927;-61
2023/06/22 07:22:27;;;;;;;;;;;;;;;23.03;65.31;98006.53;5083212;28;19924;-61
2023/06/22 07:24:56;;;;;;;;;;;;;;;23.10;64.85;98016.84;5090344;28;19928;-61
2023/06/22 07:27:24;;;;;;;;;;;;;;;23.13;64.52;98004.97;5089269;28;19924;-61
2023/06/22 07:29:52;;;;;;;;;;;;;;;23.24;64.54;98006.59;5085140;28;19928;-62
2023/06/22 07:32:20;;;;;;;;;;;;;;;23.34;64.35;97998.69;5088381;28;20007;-63
2023/06/22 07:34:50;;;;;;;;;;;;;;;23.53;63.38;98001.06;5088104;28;20274;-62
2023/06/22 07:37:17;;;;;;;;;;;;;;;23.46;63.16;98001.88;5090636;28;19970;-63
2023/06/22 07:39:45;;;;;;;;;;;;;;;23.50;62.95;98005.44;5072342;28;19960;-62
2023/06/22 07:42:18;;;;;;;;;;;;;;;23.56;62.45;97994.75;5071393;28;19924;-62
2023/06/22 07:44:50;;;;;;;;;;;;;;;23.62;62.80;97997.91;5088650;28;19928;-64
2023/06/22 07:47:19;;;;;;;;;;;;;;;23.67;62.28;97997.56;5097733;28;20439;-62
2023/06/22 07:49:46;;;;;;;;;;;;;;;23.72;61.41;98002.72;5084635;28;19978;-64
2023/06/22 07:52:14;;;;;;;;;;;;;;;23.75;60.72;97999.13;5072489;28;19935;-62
2023/06/22 07:54:43;;;;;;;;;;;;;;;23.76;60.27;97997.97;5090040;28;19935;-63
2023/06/22 07:57:10;;;;;;;;;;;;;;;23.88;59.88;97994.78;5086859;28;19928;-62
2023/06/22 07:59:41;;;;;;;;;;;;;;;23.95;60.57;97989.22;5085037;28;20026;-63
2023/06/22 08:02:09;;;;;;;;;;;;;;;24.01;59.52;97979.28;5080690;28;19924;-64
2023/06/22 08:04:37;;;;;;;;;;;;;;;24.23;58.00;97977.25;5082052;28;20011;-63
2023/06/22 08:07:06;;;;;;;;;;;;;;;24.26;58.88;97981.22;5082511;28;19925;-63
2023/06/22 08:09:35;;;;;;;;;;;;;;;24.27;57.63;98010.56;5090247;28;19924;-63
2023/06/22 08:12:03;;;;;;;;;;;;;;;24.29;58.06;97991.53;5080643;28;20377;-63
2023/06/22 08:14:31;;;;;;;;;;;;;;;24.40;57.86;97997.91;5082732;28;20024;-64
2023/06/22 08:17:00;;;;;;;;;;;;;;;24.45;58.08;97989.16;5086017;28;19924;-64
2023/06/22 08:19:28;;;;;;;;;;;;;;;24.53;58.21;97990.69;5084675;28;19976;-63
2023/06/22 08:21:55;;;;;;;;;;;;;;;24.55;59.23;97979.19;5085102;28;20285;-62
2023/06/22 08:24:23;;;;;;;;;;;;;;;24.60;58.25;97977.97;5070583;28;20400;-62
2023/06/22 08:26:54;;;;;;;;;;;;;;;24.68;57.71;97976.75;5061756;28;19971;-62
2023/06/22 08:29:22;;;;;;;;;;;;;;;24.76;56.99;97981.06;5084045;28;20261;-63
2023/06/22 08:31:49;;;;;;;;;;;;;;;24.88;54.96;97980.66;5078705;28;20023;-64
2023/06/22 08:34:21;;;;;;;;;;;;;;;24.86;56.13;97971.13;5087915;28;19955;-64
2023/06/22 08:36:52;;;;;;;;;;;;;;;24.80;56.10;97976.31;5089619;28;20007;-64
2023/06/22 08:39:20;;;;;;;;;;;;;;;24.80;56.33;97976.31;5069920;28;19924;-64
2023/06/22 08:41:50;;;;;;;;;;;;;;;24.87;54.75;97981.03;5094251;28;19924;-64
2023/06/22 08:44:19;;;;;;;;;;;;;;;24.89;55.38;97990.56;5090477;28;20407;-66
2023/06/22 08:46:47;;;;;;;;;;;;;;;24.98;54.48;97982.56;5072042;28;19924;-63
2023/06/22 08:49:20;;;;;;;;;;;;;;;25.14;53.00;97984.09;5073908;28;20628;-64
2023/06/22 08:51:49;;;;;;;;;;;;;;;25.18;53.01;97988.44;5087649;28;19928;-63
2023/06/22 08:54:17;;;;;;;;;;;;;;;25.29;53.13;97966.91;5088391;28;20335;-63
2023/06/22 08:56:44;;;;;;;;;;;;;;;25.22;53.79;97968.97;5090869;28;19970;-64
2023/06/22 08:59:12;;;;;;;;;;;;;;;25.21;53.68;97967.38;5088014;28;19958;-63
2023/06/22 09:01:40;;;;;;;;;;;;;;;25.26;53.63;97969.72;5091573;28;19928;-63
2023/06/22 09:04:09;;;;;;;;;;;;;;;25.31;51.86;97960.97;5068260;28;19956;-63
2023/06/22 09:06:44;;;;;;;;;;;;;;;25.36;53.36;97968.06;5086779;28;20361;-65
2023/06/22 09:09:13;;;;;;;;;;;;;;;25.54;51.48;97965.94;5092279;28;19924;-65
2023/06/22 09:11:40;;;;;;;;;;;;;;;25.55;52.45;97965.53;5072669;28;20031;-64
2023/06/22 09:14:08;;;;;;;;;;;;;;;25.64;51.60;97967.06;5079775;28;19985;-64
2023/06/22 09:16:36;;;;;;;;;;;;;;;25.61;51.78;97957.53;5093006;28;19931;-62
2023/06/22 09:19:04;;;;;;;;;;;;;;;25.57;52.24;97954.00;5071110;28;21334;-63
2023/06/22 09:21:32;;;;;;;;;;;;;;;25.55;52.64;97959.97;5083022;28;19931;-63
2023/06/22 09:24:02;;;;;;;;;;;;;;;25.58;52.82;97941.66;5084292;28;19924;-62
2023/06/22 09:26:31;;;;;;;;;;;;;;;25.56;52.39;97928.16;5085307;28;19931;-64
2023/06/22 09:28:59;;;;;;;;;;;;;;;25.53;52.65;97926.22;5089303;28;19930;-66
2023/06/22 09:31:27;;;;;;;;;;;;;;;25.55;52.42;97920.22;5079789;28;20434;-63
2023/06/22 09:33:55;;;;;;;;;;;;;;;25.82;50.63;97912.84;5085347;28;19963;-62
2023/06/22 09:36:23;;;;;;;;;;;;;;;26.09;50.30;97907.38;5084165;28;20335;-64
2023/06/22 09:38:55;;;;;;;;;;;;;;;26.14;50.39;97908.94;5074725;28;19926;-65
2023/06/22 09:41:24;;;;;;;;;;;;;;;26.23;50.85;97914.00;5100538;28;19974;-64
2023/06/22 09:43:51;;;;;;;;;;;;;;;26.24;50.45;97910.03;5086436;28;20015;-63
2023/06/22 09:46:24;;;;;;;;;;;;;;;26.09;51.11;97901.81;5086781;28;19928;-62
2023/06/22 09:48:52;;;;;;;;;;;;;;;26.07;50.79;97903.44;5092560;28;19932;-65
2023/06/22 09:51:21;;;;;;;;;;;;;;;26.32;50.28;97905.97;5079719;28;20011;-65
2023/06/22 09:53:49;;;;;;;;;;;;;;;26.33;49.76;97896.38;5100813;28;20726;-64
2023/06/22 09:56:17;;;;;;;;;;;;;;;26.43;49.56;97889.16;5086049;28;19931;-65
2023/06/22 09:58:47;;;;;;;;;;;;;;;26.53;49.09;97886.22;5092885;28;19935;-64
2023/06/22 10:01:15;;;;;;;;;;;;;;;26.67;48.81;97879.66;5088829;28;19924;-64
2023/06/22 10:03:43;;;;;;;;;;;;;;;26.74;48.41;97887.94;5086102;28;19925;-65
2023/06/22 10:06:11;;;;;;;;;;;;;;;26.86;47.36;97883.78;5083020;28;19942;-64
2023/06/22 10:08:40;;;;;;;;;;;;;;;26.81;47.75;97887.03;5084878;28;19964;-64
2023/06/22 10:11:08;;;;;;;;;;;;;;;26.75;48.21;97880.34;5085193;28;19928;-63
2023/06/22 10:13:36;;;;;;;;;;;;;;;26.87;48.26;97874.97;5068476;28;19928;-64
2023/06/22 10:16:06;;;;;;;;;;;;;;;26.95;47.93;97877.66;5071131;28;19973;-64
2023/06/22 10:18:34;;;;;;;;;;;;;;;26.99;47.69;97881.97;5091257;28;20024;-63
2023/06/22 10:21:02;;;;;;;;;;;;;;;27.33;46.25;97883.88;5089760;28;19928;-64
2023/06/22 10:23:30;;;;;;;;;;;;;;;27.54;45.50;97894.69;5063502;28;20412;-63
2023/06/22 10:25:58;;;;;;;;;;;;;;;27.44;45.26;97895.66;5083694;28;19924;-63
2023/06/22 10:28:26;;;;;;;;;;;;;;;27.29;46.30;97897.09;5086584;28;19931;-64
2023/06/22 10:30:54;;;;;;;;;;;;;;;27.40;45.35;97901.28;5088704;28;19932;-65
2023/06/22 10:33:23;;;;;;;;;;;;;;;27.49;45.72;97899.97;5062753;28;20293;-63
2023/06/22 10:35:51;;;;;;;;;;;;;;;27.53;45.82;97898.66;5081398;28;20014;-64
2023/06/22 10:38:19;;;;;;;;;;;;;;;27.46;46.12;97898.78;5059929;28;19928;-67
2023/06/22 10:40:46;;;;;;;;;;;;;;;27.45;45.50;97894.44;5083634;28;19932;-65
2023/06/22 10:43:14;;;;;;;;;;;;;;;27.33;46.06;97908.97;5070015;28;19956;-65
2023/06/22 10:45:42;;;;;;;;;;;;;;;27.30;46.55;97907.03;5079360;28;20011;-61
2023/06/22 10:48:10;;;;;;;;;;;;;;;27.27;46.83;97908.69;5075440;28;20019;-62
2023/06/22 10:50:39;;;;;;;;;;;;;;;27.27;46.63;97907.84;5069314;28;19925;-61
2023/06/22 10:53:07;;;;;;;;;;;;;;;27.50;46.06;97916.25;5076089;28;19925;-62
2023/06/22 10:55:34;;;;;;;;;;;;;;;27.57;45.75;97907.75;5065404;28;20421;-62
2023/06/22 10:58:21;;;;;;;;;;;;;;;27.66;44.99;97902.44;5085614;28;19924;-62
2023/06/22 11:00:49;;;;;;;;;;;;;;;27.45;45.30;97900.00;5078883;28;19924;-62
2023/06/22 11:03:17;;;;;;;;;;;;;;;27.56;45.92;97897.81;5088476;28;19928;-62
2023/06/22 11:05:47;;;;;;;;;;;;;;;27.65;45.71;97889.69;5083519;28;20329;-61
2023/06/22 11:08:15;;;;;;;;;;;;;;;27.75;45.59;97887.16;5077306;28;19935;-65
2023/06/22 11:10:43;;;;;;;;;;;;;;;27.66;46.33;97871.72;5060612;28;19968;-61
2023/06/22 11:13:11;;;;;;;;;;;;;;;27.89;44.62;97858.97;5093702;28;19928;-61
2023/06/22 11:15:39;;;;;;;;;;;;;;;28.07;44.49;97861.41;5082193;28;19925;-64
2023/06/22 11:18:07;;;;;;;;;;;;;;;28.08;43.46;97866.59;5094671;28;19929;-64
2023/06/22 11:20:38;;;;;;;;;;;;;;;28.02;44.64;97857.13;5089323;28;19924;-65
2023/06/22 11:23:07;;;;;;;;;;;;;;;28.09;44.14;97851.41;5082558;28;19974;-65
2023/06/22 11:25:35;;;;;;;;;;;;;;;28.08;44.49;97849.03;5060165;28;19968;-65
2023/06/22 11:28:03;;;;;;;;;;;;;;;28.17;44.35;97855.59;5075261;28;20423;-61
2023/06/22 11:30:31;;;;;;;;;;;;;;;28.16;44.47;97842.88;5076485;28;20350;-63
2023/06/22 11:32:59;;;;;;;;;;;;;;;28.30;44.09;97846.59;5056941;28;19932;-62
2023/06/22 11:35:27;;;;;;;;;;;;;;;28.24;43.21;97848.31;5058193;28;19967;-62
2023/06/22 11:37:55;;;;;;;;;;;;;;;28.30;43.97;97850.19;5072442;28;20019;-62
2023/06/22 11:40:25;;;;;;;;;;;;;;;28.14;44.05;97831.34;5090293;28;20010;-62
2023/06/22 11:42:54;;;;;;;;;;;;;;;28.47;43.51;97831.47;5083982;28;19952;-63
2023/06/22 11:45:22;;;;;;;;;;;;;;;28.41;43.21;97836.78;5067902;28;20303;-61
2023/06/22 11:47:50;;;;;;;;;;;;;;;28.26;43.70;97821.53;5077841;28;19964;-62
2023/06/22 11:50:18;;;;;;;;;;;;;;;28.53;42.93;97821.34;5089780;28;20364;-61
2023/06/22 11:52:46;;;;;;;;;;;;;;;28.60;42.08;97803.63;5074614;28;19925;-62
2023/06/22 11:55:14;;;;;;;;;;;;;;;28.66;40.74;97805.50;5104492;28;19931;-62
2023/06/22 11:57:54;;;;;;;;;;;;;;;28.65;40.62;97803.91;5086895;28;20356;-62
2023/06/22 12:00:24;;;;;;;;;;;;;;;28.65;41.78;97794.72;5084424;28;19955;-62
2023/06/22 12:02:57;;;;;;;;;;;;;;;28.64;43.13;97795.97;5085435;28;20373;-61
2023/06/22 12:05:27;;;;;;;;;;;;;;;28.76;42.31;97791.69;5062764;28;20014;-62
2023/06/22 12:07:55;;;;;;;;;;;;;;;28.69;43.22;97787.06;5063312;28;20376;-62
2023/06/22 12:10:24;;;;;;;;;;;;;;;28.73;42.88;97792.56;5084341;28;19924;-63
2023/06/22 12:12:54;;;;;;;;;;;;;;;28.87;43.37;97789.41;5087537;28;19924;-62
2023/06/22 12:15:21;;;;;;;;;;;;;;;29.01;42.12;97783.50;5086739;28;19924;-62
2023/06/22 12:17:49;;;;;;;;;;;;;;;28.88;42.14;97779.81;5092784;28;19946;-63
2023/06/22 12:20:17;;;;;;;;;;;;;;;28.84;42.46;97765.13;5092526;28;20054;-62
2023/06/22 12:22:45;;;;;;;;;;;;;;;29.06;41.85;97760.59;5070767;28;19976;-63
2023/06/22 12:25:13;;;;;;;;;;;;;;;29.24;40.72;97757.34;5071554;28;19989;-63
2023/06/22 12:27:41;;;;;;;;;;;;;;;29.15;41.24;97757.97;5086665;28;19997;-64
2023/06/22 12:30:10;;;;;;;;;;;;;;;29.39;41.37;97750.16;5077062;28;20467;-62
2023/06/22 12:32:39;;;;;;;;;;;;;;;29.27;41.68;97731.28;5069746;28;19928;-63
2023/06/22 12:35:13;;;;;;;;;;;;;;;29.16;41.79;97734.38;5061612;28;19947;-63
2023/06/22 12:37:41;;;;;;;;;;;;;;;29.43;40.97;97727.66;5084742;28;19935;-63
2023/06/22 12:40:09;;;;;;;;;;;;;;;29.23;40.91;97722.19;5088373;28;19981;-63
2023/06/22 12:42:37;;;;;;;;;;;;;;;29.39;41.27;97730.56;5085735;28;19931;-63
2023/06/22 12:45:05;;;;;;;;;;;;;;;29.35;40.15;97717.88;5087584;28;20004;-63
2023/06/22 12:47:34;;;;;;;;;;;;;;;29.44;41.07;97726.44;5080790;28;20353;-63
2023/06/22 12:50:03;;;;;;;;;;;;;;;29.27;40.88;97722.91;5088632;28;19930;-63
2023/06/22 12:52:31;;;;;;;;;;;;;;;29.47;39.68;97711.56;5093986;28;19928;-63
2023/06/22 12:54:58;;;;;;;;;;;;;;;29.46;38.83;97718.41;5068700;28;20381;-63